createdAt,value
2023-04-02T00:01:20.477Z,0.93
2023-04-02T00:04:17.440Z,2.80
2023-04-02T00:06:49.398Z,1.23
2023-04-02T00:09:25.705Z,0.53
2023-04-02T00:11:56.101Z,1.57
2023-04-02T00:14:25.981Z,0.97
2023-04-02T00:16:54.443Z,0.50
2023-04-02T00:19:26.693Z,0.70
2023-04-02T00:21:54.762Z,0.93
2023-04-02T00:24:23.501Z,1.27
2023-04-02T00:26:52.063Z,2.40
2023-04-02T00:29:20.474Z,2.13
2023-04-02T00:31:49.968Z,2.17
2023-04-02T00:34:21.111Z,2.77
2023-04-02T00:36:51.191Z,4.13
2023-04-02T00:39:20.832Z,3.23
2023-04-02T00:41:50.063Z,4.03
2023-04-02T00:44:23.885Z,3.70
2023-04-02T00:46:55.585Z,3.30
2023-04-02T00:49:27.558Z,3.50
2023-04-02T00:51:59.076Z,3.07
2023-04-02T00:54:29.594Z,4.27
2023-04-02T00:56:58.306Z,2.67
2023-04-02T00:59:27.856Z,2.73
2023-04-02T01:02:01.675Z,2.83
2023-04-02T01:04:32.723Z,3.33
2023-04-02T01:07:05.295Z,3.47
2023-04-02T01:09:48.076Z,2.60
2023-04-02T01:12:36.502Z,2.63
2023-04-02T01:15:09.843Z,3.10
2023-04-02T01:17:43.101Z,2.43
2023-04-02T01:20:22.744Z,2.77
2023-04-02T01:22:53.625Z,2.87
2023-04-02T01:25:25.684Z,3.93
2023-04-02T01:27:57.053Z,3.30
2023-04-02T01:30:26.846Z,3.97
2023-04-02T01:32:55.581Z,3.67
2023-04-02T01:35:24.469Z,3.27
2023-04-02T01:37:56.272Z,4.33
2023-04-02T01:40:36.902Z,4.63
2023-04-02T01:43:11.522Z,5.07
2023-04-02T01:45:40.733Z,3.87
2023-04-02T01:48:14.236Z,2.20
2023-04-02T01:50:42.804Z,3.50
2023-04-02T01:53:13.326Z,2.90
2023-04-02T01:55:42.676Z,3.47
2023-04-02T01:58:11.400Z,3.63
2023-04-02T02:00:43.306Z,5.63
2023-04-02T02:03:12.119Z,4.17
2023-04-02T02:05:39.917Z,4.77
2023-04-02T02:08:09.871Z,3.57
2023-04-02T02:10:39.986Z,3.20
2023-04-02T02:13:07.890Z,2.97
2023-04-02T02:15:37.480Z,4.13
2023-04-02T02:18:07.842Z,4.07
2023-04-02T02:20:36.208Z,5.10
2023-04-02T02:23:05.795Z,3.47
2023-04-02T02:25:36.125Z,7.57
2023-04-02T02:28:08.690Z,4.17
2023-04-02T02:30:37.678Z,3.10
2023-04-02T02:33:10.147Z,3.20
2023-04-02T02:35:42.513Z,4.57
2023-04-02T02:38:35.803Z,4.57
2023-04-02T02:41:05.907Z,3.20
2023-04-02T02:43:34.400Z,5.37
2023-04-02T02:46:04.339Z,4.63
2023-04-02T02:48:36.749Z,3.77
2023-04-02T02:51:08.947Z,5.70
2023-04-02T02:53:47.810Z,3.87
2023-04-02T02:56:15.950Z,4.67
2023-04-02T02:58:44.065Z,3.87
2023-04-02T03:01:12.347Z,3.27
2023-04-02T03:03:41.590Z,5.17
2023-04-02T03:06:10.610Z,4.57
2023-04-02T03:08:40.747Z,4.50
2023-04-02T03:11:10.610Z,5.60
2023-04-02T03:13:40.637Z,4.67
2023-04-02T03:16:11.796Z,4.73
2023-04-02T03:18:44.847Z,4.27
2023-04-02T03:21:17.873Z,3.73
2023-04-02T03:23:47.050Z,6.73
2023-04-02T03:26:19.317Z,3.77
2023-04-02T03:28:49.347Z,4.07
2023-04-02T03:31:19.984Z,4.20
2023-04-02T03:33:51.400Z,6.43
2023-04-02T03:36:22.676Z,3.60
2023-04-02T03:38:52.659Z,4.17
2023-04-02T03:41:26.270Z,4.47
2023-04-02T03:43:55.413Z,4.17
2023-04-02T03:46:28.639Z,5.30
2023-04-02T03:48:58.905Z,5.40
2023-04-02T03:51:28.695Z,5.00
2023-04-02T03:53:57.500Z,5.77
2023-04-02T03:56:29.670Z,5.43
2023-04-02T03:59:04.381Z,6.23
2023-04-02T04:01:34.540Z,5.37
2023-04-02T04:04:07.627Z,6.00
2023-04-02T04:06:36.263Z,5.70
2023-04-02T04:09:08.804Z,3.60
2023-04-02T04:11:37.866Z,5.07
2023-04-02T04:14:08.366Z,4.53
2023-04-02T04:16:43.263Z,2.60
2023-04-02T04:19:18.269Z,4.10
2023-04-02T04:21:47.283Z,5.00
2023-04-02T04:24:20.295Z,3.77
2023-04-02T04:26:53.695Z,3.83
2023-04-02T04:29:31.322Z,4.90
2023-04-02T04:32:09.626Z,4.43
2023-04-02T04:34:46.703Z,5.17
2023-04-02T04:37:21.750Z,5.53
2023-04-02T04:39:52.574Z,5.83
2023-04-02T04:42:22.254Z,4.53
2023-04-02T04:44:53.413Z,3.57
2023-04-02T04:47:22.308Z,5.87
2023-04-02T04:49:54.392Z,5.27
2023-04-02T04:52:23.800Z,6.73
2023-04-02T04:54:51.551Z,6.37
2023-04-02T04:57:30.592Z,6.43
2023-04-02T05:00:00.746Z,7.93
2023-04-02T05:02:30.875Z,5.87
2023-04-02T05:05:02.000Z,6.23
2023-04-02T05:07:31.319Z,5.10
2023-04-02T05:10:02.053Z,6.13
2023-04-02T05:12:34.817Z,5.57
2023-04-02T05:15:05.333Z,6.83
2023-04-02T05:17:36.733Z,6.53
2023-04-02T05:20:09.875Z,5.40
2023-04-02T05:22:41.391Z,5.90
2023-04-02T05:25:16.830Z,4.97
2023-04-02T05:27:47.252Z,5.67
2023-04-02T05:30:21.463Z,5.87
2023-04-02T05:32:52.939Z,3.67
2023-04-02T05:35:23.773Z,4.03
2023-04-02T05:37:52.424Z,3.27
2023-04-02T05:40:23.425Z,3.67
2023-04-02T05:42:52.971Z,3.87
2023-04-02T05:45:25.601Z,3.73
2023-04-02T05:47:57.454Z,4.23
2023-04-02T05:50:30.536Z,3.87
2023-04-02T05:53:02.264Z,2.67
2023-04-02T05:55:37.570Z,5.03
2023-04-02T05:58:31.871Z,3.70
2023-04-02T06:01:01.743Z,3.63
2023-04-02T06:03:33.915Z,3.17
2023-04-02T06:06:06.431Z,5.33
2023-04-02T06:08:37.688Z,6.37
2023-04-02T06:11:08.925Z,4.70
2023-04-02T06:13:36.923Z,7.57
2023-04-02T06:16:05.296Z,5.10
2023-04-02T06:18:35.021Z,8.90
2023-04-02T06:21:05.260Z,5.57
2023-04-02T06:23:34.876Z,5.83
2023-04-02T06:26:04.730Z,4.70
2023-04-02T06:28:36.463Z,5.37
2023-04-02T06:31:08.896Z,3.97
2023-04-02T06:33:37.080Z,5.23
2023-04-02T06:36:07.909Z,4.47
2023-04-02T06:38:37.229Z,4.07
2023-04-02T06:41:07.043Z,3.50
2023-04-02T06:43:37.721Z,3.40
2023-04-02T06:46:08.584Z,5.50
2023-04-02T06:48:38.522Z,4.33
2023-04-02T06:51:09.644Z,4.93
2023-04-02T06:53:38.806Z,4.17
2023-04-02T06:56:11.558Z,3.60
2023-04-02T06:58:39.581Z,4.57
2023-04-02T07:01:07.585Z,4.83
2023-04-02T07:03:35.668Z,4.03
2023-04-02T07:06:04.026Z,6.43
2023-04-02T07:08:33.091Z,6.67
2023-04-02T07:11:01.065Z,3.93
2023-04-02T07:13:29.538Z,7.23
2023-04-02T07:15:57.394Z,6.20
2023-04-02T07:18:30.583Z,6.17
2023-04-02T07:20:59.754Z,7.10
2023-04-02T07:23:27.867Z,10.50
2023-04-02T07:25:58.869Z,5.17
2023-04-02T07:28:27.125Z,9.03
2023-04-02T07:30:55.571Z,6.37
2023-04-02T07:33:25.511Z,10.33
2023-04-02T07:35:54.949Z,6.87
2023-04-02T07:38:22.798Z,7.30
2023-04-02T07:40:51.174Z,8.90
2023-04-02T07:43:20.245Z,9.23
2023-04-02T07:45:48.038Z,7.23
2023-04-02T07:48:16.459Z,6.17
2023-04-02T07:50:44.360Z,5.43
2023-04-02T07:53:24.811Z,4.17
2023-04-02T07:55:53.274Z,5.00
2023-04-02T07:58:22.832Z,5.57
2023-04-02T08:00:50.744Z,3.13
2023-04-02T08:03:18.927Z,3.23
2023-04-02T08:05:51.269Z,1.40
2023-04-02T08:08:18.985Z,1.10
2023-04-02T08:10:46.739Z,1.13
2023-04-02T08:13:14.708Z,1.30
2023-04-02T08:15:44.098Z,0.70
2023-04-02T08:18:12.152Z,1.00
2023-04-02T08:20:40.564Z,1.03
2023-04-02T08:23:15.408Z,1.80
2023-04-02T08:25:43.329Z,2.07
2023-04-02T08:28:11.111Z,2.00
2023-04-02T08:30:39.076Z,0.60
2023-04-02T08:33:08.442Z,1.10
2023-04-02T08:35:36.689Z,3.37
2023-04-02T08:38:04.784Z,1.53
2023-04-02T08:40:35.542Z,0.60
2023-04-02T08:43:09.669Z,2.30
2023-04-02T08:45:43.186Z,1.00
2023-04-02T08:48:14.393Z,0.97
2023-04-02T08:50:43.003Z,1.97
2023-04-02T08:53:15.118Z,0.90
2023-04-02T08:55:47.956Z,1.10
2023-04-02T08:58:22.054Z,0.70
2023-04-02T09:00:51.740Z,1.97
2023-04-02T09:03:22.521Z,2.10
2023-04-02T09:05:52.345Z,1.03
2023-04-02T09:08:20.999Z,0.70
2023-04-02T09:10:52.217Z,1.00
2023-04-02T09:13:23.414Z,0.93
2023-04-02T09:15:54.462Z,1.37
2023-04-02T09:18:23.660Z,1.23
2023-04-02T09:20:51.690Z,1.50
2023-04-02T09:23:21.066Z,0.50
2023-04-02T09:26:03.039Z,0.30
2023-04-02T09:28:32.236Z,0.50
2023-04-02T09:31:07.411Z,0.77
2023-04-02T09:33:44.090Z,1.37
2023-04-02T09:36:19.378Z,1.27
2023-04-02T09:38:58.128Z,0.50
2023-04-02T09:41:28.130Z,1.20
2023-04-02T09:44:10.875Z,0.70
2023-04-02T09:46:39.021Z,0.60
2023-04-02T09:49:13.944Z,1.90
2023-04-02T09:51:41.822Z,0.50
2023-04-02T09:54:11.623Z,1.10
2023-04-02T09:56:40.269Z,1.23
2023-04-02T09:59:15.352Z,0.50
2023-04-02T10:01:43.536Z,1.00
2023-04-02T10:04:26.482Z,1.10
2023-04-02T10:06:58.110Z,0.50
2023-04-02T10:09:31.548Z,0.70
2023-04-02T10:12:00.158Z,1.30
2023-04-02T10:14:29.807Z,0.60
2023-04-02T10:16:59.333Z,2.00
2023-04-02T10:19:31.525Z,1.03
2023-04-02T10:22:02.253Z,1.17
2023-04-02T10:24:30.645Z,1.47
2023-04-02T10:27:09.942Z,1.33
2023-04-02T10:30:02.504Z,0.90
2023-04-02T10:32:33.622Z,1.87
2023-04-02T10:35:03.233Z,0.50
2023-04-02T10:37:47.302Z,0.90
2023-04-02T10:40:18.749Z,0.93
2023-04-02T10:42:50.096Z,1.70
2023-04-02T10:45:21.348Z,0.60
2023-04-02T10:47:52.177Z,1.60
2023-04-02T10:50:29.876Z,0.30
2023-04-02T10:53:05.736Z,1.47
2023-04-02T10:55:35.309Z,0.90
2023-04-02T10:58:07.792Z,1.03
2023-04-02T11:00:38.467Z,0.50
2023-04-02T11:03:09.809Z,0.67
2023-04-02T11:05:44.180Z,0.73
2023-04-02T11:08:18.466Z,0.97
2023-04-02T11:10:47.775Z,0.90
2023-04-02T11:13:19.516Z,1.37
2023-04-02T11:15:47.319Z,0.40
2023-04-02T11:18:23.715Z,0.87
2023-04-02T11:21:01.196Z,0.50
2023-04-02T11:23:42.528Z,0.53
2023-04-02T11:26:28.965Z,0.50
2023-04-02T11:29:03.276Z,0.60
2023-04-02T11:31:31.599Z,0.43
2023-04-02T11:33:59.307Z,0.70
2023-04-02T11:36:48.218Z,1.90
2023-04-02T11:39:38.658Z,1.00
2023-04-02T11:42:07.818Z,0.70
2023-04-02T11:44:35.667Z,0.87
2023-04-02T11:47:17.125Z,2.87
2023-04-02T11:50:05.809Z,0.50
2023-04-02T11:52:35.463Z,2.57
2023-04-02T11:55:17.984Z,1.90
2023-04-02T11:57:52.422Z,0.70
2023-04-02T12:00:27.801Z,0.53
2023-04-02T12:03:03.624Z,1.80
2023-04-02T12:05:36.784Z,0.50
2023-04-02T12:08:12.942Z,0.40
2023-04-02T12:10:55.471Z,0.40
2023-04-02T12:13:44.720Z,0.53
2023-04-02T12:16:13.454Z,0.70
2023-04-02T12:18:44.457Z,1.10
2023-04-02T12:21:18.003Z,1.30
2023-04-02T12:23:47.836Z,6.00
2023-04-02T12:26:37.913Z,1.37
2023-04-02T12:29:23.585Z,0.90
2023-04-02T12:31:53.515Z,0.50
2023-04-02T12:34:22.998Z,0.80
2023-04-02T12:36:57.760Z,0.80
2023-04-02T12:39:27.965Z,0.60
2023-04-02T12:41:56.479Z,2.63
2023-04-02T12:44:31.939Z,1.17
2023-04-02T12:47:00.545Z,0.63
2023-04-02T12:49:39.106Z,0.80
2023-04-02T12:52:07.945Z,0.77
2023-04-02T12:54:37.827Z,0.80
2023-04-02T12:57:22.165Z,0.60
2023-04-02T12:59:51.513Z,1.87
2023-04-02T13:02:20.789Z,0.93
2023-04-02T13:04:49.296Z,1.43
2023-04-02T13:07:21.015Z,0.50
2023-04-02T13:09:50.123Z,1.17
2023-04-02T13:12:28.127Z,0.73
2023-04-02T13:15:04.573Z,0.90
2023-04-02T13:17:51.458Z,0.40
2023-04-02T13:20:29.462Z,0.50
2023-04-02T13:22:57.280Z,1.07
2023-04-02T13:25:27.916Z,0.87
2023-04-02T13:27:56.327Z,0.73
2023-04-02T13:30:27.090Z,0.60
2023-04-02T13:32:55.462Z,0.50
2023-04-02T13:35:23.470Z,1.13
2023-04-02T13:37:51.580Z,0.87
2023-04-02T13:40:20.462Z,0.60
2023-04-02T13:42:50.709Z,0.50
2023-04-02T13:45:22.294Z,1.10
2023-04-02T13:47:51.802Z,0.77
2023-04-02T13:50:20.493Z,1.50
2023-04-02T13:52:48.908Z,0.83
2023-04-02T13:55:17.005Z,0.70
2023-04-02T13:57:44.652Z,0.87
2023-04-02T14:00:13.095Z,0.80
2023-04-02T14:02:44.546Z,0.60
2023-04-02T14:05:18.930Z,0.63
2023-04-02T14:07:51.052Z,0.53
2023-04-02T14:10:24.065Z,0.43
2023-04-02T14:13:03.078Z,0.40
2023-04-02T14:15:35.420Z,0.67
2023-04-02T14:18:12.921Z,0.77
2023-04-02T14:20:45.392Z,3.00
2023-04-02T14:23:19.755Z,1.43
2023-04-02T14:25:55.267Z,1.27
2023-04-02T14:28:27.468Z,0.70
2023-04-02T14:30:59.829Z,0.70
2023-04-02T14:33:33.712Z,0.67
2023-04-02T14:36:09.127Z,1.23
2023-04-02T14:38:42.914Z,0.83
2023-04-02T14:41:13.032Z,0.70
2023-04-02T14:43:45.012Z,0.60
2023-04-02T14:46:13.141Z,0.63
2023-04-02T14:48:47.698Z,0.50
2023-04-02T14:51:23.358Z,0.53
2023-04-02T14:53:55.745Z,0.60
2023-04-02T14:56:25.122Z,0.80
2023-04-02T14:58:55.836Z,0.70
2023-04-02T15:01:26.575Z,0.77
2023-04-02T15:03:57.763Z,1.27
2023-04-02T15:06:28.560Z,0.57
2023-04-02T15:09:08.826Z,1.67
2023-04-02T15:11:38.466Z,2.07
2023-04-02T15:14:08.618Z,0.63
2023-04-02T15:16:36.838Z,0.80
2023-04-02T15:19:05.731Z,0.70
2023-04-02T15:21:55.953Z,0.80
2023-04-02T15:24:31.995Z,0.70
2023-04-02T15:27:11.907Z,0.83
2023-04-02T15:29:48.112Z,0.53
2023-04-02T15:32:23.958Z,1.33
2023-04-02T15:34:53.589Z,1.23
2023-04-02T15:37:24.724Z,1.07
2023-04-02T15:39:57.007Z,0.60
2023-04-02T15:42:26.293Z,1.73
2023-04-02T15:45:14.402Z,1.20
2023-04-02T15:47:46.534Z,2.03
2023-04-02T15:50:25.912Z,3.57
2023-04-02T15:53:00.036Z,0.70
2023-04-02T15:55:31.033Z,0.97
2023-04-02T15:58:06.643Z,0.53
2023-04-02T16:00:36.483Z,0.67
2023-04-02T16:03:19.156Z,0.60
2023-04-02T16:05:52.346Z,0.73
2023-04-02T16:08:30.437Z,0.90
2023-04-02T16:10:58.581Z,0.60
2023-04-02T16:13:31.483Z,1.03
2023-04-02T16:16:02.518Z,1.20
2023-04-02T16:18:34.081Z,1.03
2023-04-02T16:21:03.991Z,0.60
2023-04-02T16:23:35.578Z,0.53
2023-04-02T16:26:07.040Z,0.97
2023-04-02T16:28:37.566Z,1.77
2023-04-02T16:31:09.319Z,1.10
2023-04-02T16:33:45.466Z,1.67
2023-04-02T16:36:20.120Z,0.87
2023-04-02T16:38:55.522Z,1.33
2023-04-02T16:41:27.544Z,1.97
2023-04-02T16:43:58.855Z,5.43
2023-04-02T16:46:39.630Z,0.60
2023-04-02T16:49:15.021Z,3.03
2023-04-02T16:51:46.518Z,5.13
2023-04-02T16:54:18.260Z,3.77
2023-04-02T16:56:58.579Z,2.23
2023-04-02T16:59:30.016Z,2.27
2023-04-02T17:02:00.908Z,1.47
2023-04-02T17:04:46.420Z,1.40
2023-04-02T17:07:24.501Z,1.90
2023-04-02T17:09:54.593Z,1.57
2023-04-02T17:12:23.331Z,1.10
2023-04-02T17:14:53.304Z,1.20
2023-04-02T17:17:21.680Z,2.57
2023-04-02T17:19:52.153Z,2.43
2023-04-02T17:22:21.988Z,1.60
2023-04-02T17:24:53.839Z,3.50
2023-04-02T17:27:25.116Z,3.93
2023-04-02T17:29:54.325Z,5.23
2023-04-02T17:32:24.456Z,2.10
2023-04-02T17:34:52.400Z,1.77
2023-04-02T17:37:26.290Z,2.10
2023-04-02T17:39:59.199Z,1.60
2023-04-02T17:42:35.104Z,2.80
2023-04-02T17:45:06.230Z,3.37
2023-04-02T17:47:40.619Z,3.50
2023-04-02T17:50:23.079Z,2.37
2023-04-02T17:52:53.436Z,2.60
2023-04-02T17:55:28.498Z,1.50
2023-04-02T17:58:02.740Z,2.50
2023-04-02T18:00:40.061Z,4.73
2023-04-02T18:03:18.539Z,4.40
2023-04-02T18:05:47.307Z,1.57
2023-04-02T18:08:22.720Z,1.83
2023-04-02T18:10:56.670Z,3.37
2023-04-02T18:13:33.658Z,1.97
2023-04-02T18:16:13.876Z,2.20
2023-04-02T18:18:45.500Z,3.03
2023-04-02T18:21:17.147Z,3.43
2023-04-02T18:23:50.468Z,2.57
2023-04-02T18:26:23.649Z,4.43
2023-04-02T18:29:00.227Z,2.80
2023-04-02T18:31:33.239Z,3.90
2023-04-02T18:34:18.661Z,2.63
2023-04-02T18:36:53.980Z,4.70
2023-04-02T18:39:27.446Z,1.90
2023-04-02T18:42:01.993Z,3.70
2023-04-02T18:44:36.991Z,4.47
2023-04-02T18:47:07.680Z,4.53
2023-04-02T18:49:36.956Z,6.60
2023-04-02T18:52:10.632Z,1.97
2023-04-02T18:54:40.444Z,2.93
2023-04-02T18:57:12.387Z,2.93
2023-04-02T18:59:43.443Z,2.97
2023-04-02T19:02:27.336Z,4.80
2023-04-02T19:04:59.482Z,3.73
2023-04-02T19:07:28.716Z,4.50
2023-04-02T19:09:57.306Z,3.23
2023-04-02T19:12:24.973Z,3.10
2023-04-02T19:14:59.586Z,4.97
2023-04-02T19:17:30.991Z,3.03
2023-04-02T19:20:11.739Z,3.40
2023-04-02T19:22:44.176Z,3.37
2023-04-02T19:25:18.464Z,3.70
2023-04-02T19:27:52.129Z,2.97
2023-04-02T19:30:40.772Z,3.90
2023-04-02T19:33:25.039Z,2.73
2023-04-02T19:35:55.270Z,3.23
2023-04-02T19:38:33.884Z,2.10
2023-04-02T19:41:03.336Z,3.97
2023-04-02T19:43:31.396Z,2.20
2023-04-02T19:45:59.304Z,2.67
2023-04-02T19:48:29.455Z,2.27
2023-04-02T19:50:57.585Z,6.33
2023-04-02T19:53:25.324Z,3.97
2023-04-02T19:55:53.210Z,8.77
2023-04-02T19:58:27.481Z,4.53
2023-04-02T20:00:55.528Z,2.77
2023-04-02T20:03:23.512Z,2.30
2023-04-02T20:05:52.797Z,2.70
2023-04-02T20:08:20.539Z,3.63
2023-04-02T20:10:48.164Z,2.10
2023-04-02T20:13:15.890Z,2.40
2023-04-02T20:15:43.737Z,2.60
2023-04-02T20:18:11.559Z,3.70
2023-04-02T20:20:39.510Z,2.33
2023-04-02T20:23:08.760Z,2.10
2023-04-02T20:25:36.407Z,3.07
2023-04-02T20:28:04.138Z,4.20
2023-04-02T20:30:32.675Z,2.30
2023-04-02T20:33:01.187Z,3.93
2023-04-02T20:35:29.933Z,2.37
2023-04-02T20:37:57.902Z,2.33
2023-04-02T20:40:26.931Z,2.17
2023-04-02T20:42:55.664Z,2.27
2023-04-02T20:45:25.084Z,3.93
2023-04-02T20:47:52.908Z,4.13
2023-04-02T20:50:20.733Z,3.77
2023-04-02T20:52:48.576Z,4.83
2023-04-02T20:55:16.796Z,2.60
2023-04-02T20:57:45.929Z,2.93
2023-04-02T21:00:14.874Z,3.50
2023-04-02T21:02:42.697Z,4.33
2023-04-02T21:05:10.675Z,2.63
2023-04-02T21:07:38.612Z,5.20
2023-04-02T21:10:06.693Z,4.77
2023-04-02T21:12:34.456Z,3.57
2023-04-02T21:15:03.634Z,4.97
2023-04-02T21:17:31.674Z,5.60
2023-04-02T21:19:59.437Z,3.23
2023-04-02T21:22:27.157Z,6.00
2023-04-02T21:24:55.167Z,5.13
2023-04-02T21:27:25.781Z,4.90
2023-04-02T21:29:53.790Z,5.20
2023-04-02T21:32:23.564Z,7.00
2023-04-02T21:34:51.371Z,6.17
2023-04-02T21:37:19.420Z,7.17
2023-04-02T21:39:47.084Z,6.33
2023-04-02T21:42:15.350Z,6.47
2023-04-02T21:44:43.348Z,5.43
2023-04-02T21:47:11.096Z,5.50
2023-04-02T21:49:40.294Z,6.10
2023-04-02T21:52:08.040Z,8.07
2023-04-02T21:54:35.832Z,5.60
2023-04-02T21:57:03.801Z,6.57
2023-04-02T21:59:31.530Z,19.10
2023-04-02T22:01:59.207Z,15.20
2023-04-02T22:04:28.767Z,24.13
2023-04-02T22:06:58.069Z,17.33
2023-04-02T22:09:26.678Z,16.80
2023-04-02T22:11:55.636Z,15.83
2023-04-02T22:14:30.739Z,15.53
2023-04-02T22:16:59.545Z,15.23
2023-04-02T22:19:27.799Z,12.50
2023-04-02T22:21:56.417Z,14.57
2023-04-02T22:24:25.675Z,19.03
2023-04-02T22:26:53.931Z,17.47
2023-04-02T22:29:21.980Z,16.10
2023-04-02T22:31:49.776Z,17.47
2023-04-02T22:34:17.961Z,16.43
2023-04-02T22:36:45.939Z,17.83
2023-04-02T22:39:13.685Z,16.30
2023-04-02T22:41:42.916Z,15.63
2023-04-02T22:44:14.154Z,11.50
2023-04-02T22:46:41.976Z,8.87
2023-04-02T22:49:11.331Z,11.00
2023-04-02T22:51:39.150Z,9.07
2023-04-02T22:54:06.992Z,7.47
2023-04-02T22:56:35.599Z,7.00
2023-04-02T22:59:04.910Z,9.43
2023-04-02T23:01:34.256Z,3.63
2023-04-02T23:04:02.146Z,5.37
2023-04-02T23:06:29.989Z,7.90
2023-04-02T23:08:58.101Z,6.13
2023-04-02T23:11:27.564Z,6.30
2023-04-02T23:13:56.691Z,8.07
2023-04-02T23:16:27.246Z,4.93
2023-04-02T23:18:55.656Z,5.37
2023-04-02T23:21:23.974Z,3.53
2023-04-02T23:23:51.973Z,4.50
2023-04-02T23:26:21.920Z,7.57
2023-04-02T23:28:49.833Z,6.33
2023-04-02T23:31:18.000Z,5.40
2023-04-02T23:33:47.195Z,7.60
2023-04-02T23:36:15.566Z,8.17
2023-04-02T23:38:43.385Z,8.80
2023-04-02T23:41:13.784Z,8.53
2023-04-02T23:43:41.641Z,8.20
2023-04-02T23:46:09.990Z,8.57
2023-04-02T23:48:37.751Z,7.60
2023-04-02T23:51:07.403Z,5.77
2023-04-02T23:53:35.700Z,5.87
2023-04-02T23:56:03.480Z,4.67
2023-04-02T23:58:31.273Z,6.17
